createdAt,value
2022-08-10T00:02:10.970Z,2.28
2022-08-10T00:06:13.867Z,2.10
2022-08-10T00:10:18.732Z,2.10
2022-08-10T00:14:21.627Z,2.10
2022-08-10T00:18:34.582Z,2.67
2022-08-10T00:22:38.357Z,2.45
2022-08-10T00:27:52.570Z,2.38
2022-08-10T00:31:22.875Z,2.10
2022-08-10T00:35:27.133Z,2.60
2022-08-10T00:39:36.090Z,2.58
2022-08-10T00:43:39.348Z,2.23
2022-08-10T00:47:42.187Z,2.65
2022-08-10T00:51:48.906Z,2.55
2022-08-10T00:57:14.485Z,2.50
2022-08-10T01:00:15.161Z,2.90
2022-08-10T01:04:57.309Z,2.88
2022-08-10T01:08:52.498Z,2.67
2022-08-10T01:13:01.999Z,2.55
2022-08-10T01:17:12.399Z,2.67
2022-08-10T01:21:56.708Z,2.70
2022-08-10T01:26:30.558Z,2.90
2022-08-10T01:30:37.164Z,2.80
2022-08-10T01:34:50.448Z,3.13
2022-08-10T01:38:55.076Z,2.97
2022-08-10T01:43:07.933Z,2.22
2022-08-10T01:47:33.758Z,2.50
2022-08-10T01:51:41.220Z,3.00
2022-08-10T01:55:44.796Z,2.40
2022-08-10T02:00:00.656Z,2.10
2022-08-10T02:04:12.986Z,2.60
2022-08-10T02:08:18.767Z,3.20
2022-08-10T02:12:25.443Z,3.35
2022-08-10T02:16:29.426Z,2.38
2022-08-10T02:20:36.646Z,3.30
2022-08-10T02:24:42.023Z,3.28
2022-08-10T02:28:45.520Z,2.75
2022-08-10T02:32:52.684Z,3.08
2022-08-10T02:36:59.231Z,3.10
2022-08-10T02:45:14.851Z,2.80
2022-08-10T02:45:40.178Z,2.40
2022-08-10T02:49:44.668Z,2.80
2022-08-10T02:53:57.118Z,3.03
2022-08-10T02:58:12.680Z,2.58
2022-08-10T03:02:27.510Z,3.40
2022-08-10T03:06:36.041Z,3.03
2022-08-10T03:10:43.192Z,3.00
2022-08-10T03:14:46.962Z,3.45
2022-08-10T03:18:50.860Z,2.92
2022-08-10T03:22:56.317Z,3.10
2022-08-10T03:27:00.935Z,2.90
2022-08-10T03:31:04.262Z,3.45
2022-08-10T03:35:09.012Z,3.20
2022-08-10T03:39:12.190Z,3.40
2022-08-10T03:43:20.701Z,3.38
2022-08-10T03:47:25.884Z,3.15
2022-08-10T03:51:29.094Z,2.75
2022-08-10T03:56:29.360Z,3.42
2022-08-10T03:59:57.097Z,3.13
2022-08-10T04:04:11.744Z,3.97
2022-08-10T04:08:17.669Z,3.15
2022-08-10T04:12:20.508Z,2.47
2022-08-10T04:16:24.655Z,2.80
2022-08-10T04:20:35.010Z,3.10
2022-08-10T04:24:40.157Z,3.47
2022-08-10T04:28:43.735Z,3.90
2022-08-10T04:32:51.054Z,3.38
2022-08-10T04:36:57.956Z,3.58
2022-08-10T04:41:02.238Z,3.53
2022-08-10T04:45:11.779Z,3.85
2022-08-10T04:49:54.987Z,4.10
2022-08-10T04:54:04.631Z,3.38
2022-08-10T04:58:01.519Z,4.25
2022-08-10T05:02:30.215Z,3.58
2022-08-10T05:06:28.616Z,3.85
2022-08-10T05:10:31.371Z,3.47
2022-08-10T05:14:34.185Z,3.70
2022-08-10T05:18:37.000Z,3.33
2022-08-10T05:22:42.341Z,3.40
2022-08-10T05:26:57.206Z,3.60
2022-08-10T05:31:08.232Z,2.90
2022-08-10T05:35:11.048Z,3.38
2022-08-10T05:39:16.113Z,3.55
2022-08-10T05:43:20.449Z,3.30
2022-08-10T05:47:23.515Z,3.35
2022-08-10T05:51:27.384Z,2.42
2022-08-10T05:55:32.409Z,2.45
2022-08-10T06:00:35.542Z,2.03
2022-08-10T06:04:01.138Z,2.47
2022-08-10T06:08:08.627Z,2.35
2022-08-10T06:12:27.803Z,1.70
2022-08-10T06:16:34.912Z,1.38
2022-08-10T06:20:39.284Z,0.75
2022-08-10T06:25:12.239Z,0.47
2022-08-10T06:29:10.867Z,0.55
2022-08-10T06:33:14.192Z,0.70
2022-08-10T06:37:20.225Z,1.27
2022-08-10T06:41:57.704Z,1.83
2022-08-10T06:46:07.305Z,1.50
2022-08-10T06:50:34.459Z,2.00
2022-08-10T06:54:41.562Z,1.52
2022-08-10T06:58:50.972Z,1.60
2022-08-10T07:02:58.166Z,1.60
2022-08-10T07:07:03.376Z,1.50
2022-08-10T07:11:11.473Z,1.58
2022-08-10T07:15:17.289Z,1.85
2022-08-10T07:19:23.294Z,1.88
2022-08-10T07:23:57.443Z,1.73
2022-08-10T07:27:58.607Z,1.85
2022-08-10T07:32:05.229Z,1.70
2022-08-10T07:36:11.168Z,1.90
2022-08-10T07:40:16.004Z,1.90
2022-08-10T07:44:20.340Z,1.35
2022-08-10T07:48:27.332Z,1.08
2022-08-10T07:52:35.126Z,0.70
2022-08-10T07:56:48.813Z,0.38
2022-08-10T08:00:53.986Z,0.70
2022-08-10T08:05:01.647Z,1.00
2022-08-10T08:09:06.622Z,1.27
2022-08-10T08:13:09.986Z,1.35
2022-08-10T08:17:17.761Z,1.25
2022-08-10T08:24:05.947Z,1.73
2022-08-10T08:25:47.041Z,1.60
2022-08-10T08:29:52.070Z,1.60
2022-08-10T08:33:57.023Z,1.88
2022-08-10T08:38:33.738Z,1.48
2022-08-10T08:42:51.544Z,1.52
2022-08-10T08:48:01.059Z,1.48
2022-08-10T08:52:08.255Z,1.55
2022-08-10T08:56:15.450Z,1.20
2022-08-10T09:00:31.095Z,1.17
2022-08-10T09:05:00.498Z,2.00
2022-08-10T09:09:38.353Z,1.00
2022-08-10T09:13:45.275Z,1.45
2022-08-10T09:17:56.106Z,1.40
2022-08-10T09:22:18.368Z,1.48
2022-08-10T09:26:26.673Z,1.25
2022-08-10T09:30:34.775Z,1.20
2022-08-10T09:36:27.764Z,1.60
2022-08-10T09:40:56.459Z,1.20
2022-08-10T09:43:59.933Z,1.08
2022-08-10T09:48:10.319Z,1.10
2022-08-10T09:52:22.664Z,1.50
2022-08-10T09:56:33.372Z,1.00
2022-08-10T10:00:41.624Z,1.60
2022-08-10T10:04:52.260Z,1.20
2022-08-10T10:09:10.531Z,1.10
2022-08-10T10:13:50.069Z,1.30
2022-08-10T10:17:59.398Z,1.20
2022-08-10T10:22:14.108Z,1.13
2022-08-10T10:26:25.155Z,1.73
2022-08-10T10:30:36.438Z,1.25
2022-08-10T10:34:49.319Z,1.00
2022-08-10T10:38:54.442Z,1.15
2022-08-10T10:43:06.524Z,1.30
2022-08-10T10:47:20.562Z,1.10
2022-08-10T10:51:29.518Z,1.13
2022-08-10T10:56:13.511Z,1.10
2022-08-10T11:00:11.359Z,0.90
2022-08-10T11:04:21.965Z,1.00
2022-08-10T11:08:29.032Z,1.10
2022-08-10T11:12:39.910Z,1.05
2022-08-10T11:16:57.329Z,0.90
2022-08-10T11:21:11.855Z,1.10
2022-08-10T11:25:23.714Z,1.50
2022-08-10T11:29:33.230Z,1.30
2022-08-10T11:34:03.992Z,0.20
2022-08-10T11:38:30.961Z,0.20
2022-08-10T11:42:42.879Z,0.20
2022-08-10T11:46:54.386Z,0.50
2022-08-10T11:51:00.824Z,0.70
2022-08-10T11:55:10.949Z,0.60
2022-08-10T11:59:35.447Z,0.60
2022-08-10T12:03:39.814Z,0.30
2022-08-10T12:10:07.578Z,0.10
2022-08-10T12:12:11.451Z,0.10
2022-08-10T12:16:19.514Z,0.30
2022-08-10T12:20:29.901Z,0.50
2022-08-10T12:24:38.517Z,0.50
2022-08-10T12:28:51.872Z,0.60
2022-08-10T12:33:03.252Z,0.80
2022-08-10T12:37:15.742Z,0.63
2022-08-10T12:41:43.599Z,0.52
2022-08-10T12:45:56.938Z,0.88
2022-08-10T12:50:30.042Z,0.98
2022-08-10T12:54:36.647Z,0.60
2022-08-10T12:58:58.689Z,0.40
2022-08-10T13:03:07.220Z,0.30
2022-08-10T13:08:25.612Z,0.30
2022-08-10T13:12:44.405Z,0.30
2022-08-10T13:15:59.692Z,0.40
2022-08-10T13:20:14.271Z,0.30
2022-08-10T13:24:19.064Z,0.30
2022-08-10T13:28:36.039Z,0.10
2022-08-10T13:32:52.194Z,0.20
2022-08-10T13:36:58.126Z,0.15
2022-08-10T13:41:02.323Z,0.10
2022-08-10T13:45:10.899Z,0.10
2022-08-10T13:49:16.112Z,0.10
2022-08-10T13:53:19.913Z,0.10
2022-08-10T13:57:26.009Z,0.10
2022-08-10T14:01:31.497Z,0.00
2022-08-10T14:05:39.583Z,0.10
2022-08-10T14:09:43.782Z,0.00
2022-08-10T14:13:52.995Z,0.00
2022-08-10T14:17:58.559Z,0.00
2022-08-10T14:22:03.249Z,0.00
2022-08-10T14:26:09.389Z,0.00
2022-08-10T14:30:17.920Z,0.10
2022-08-10T14:34:21.462Z,0.10
2022-08-10T14:38:46.333Z,0.35
2022-08-10T14:42:53.647Z,0.30
2022-08-10T14:47:02.115Z,0.20
2022-08-10T14:51:10.102Z,0.28
2022-08-10T14:55:19.300Z,0.30
2022-08-10T14:59:45.871Z,0.43
2022-08-10T15:03:58.654Z,0.50
2022-08-10T15:08:03.602Z,0.40
2022-08-10T15:12:15.460Z,0.60
2022-08-10T15:16:20.780Z,0.82
2022-08-10T15:20:27.423Z,0.30
2022-08-10T15:24:50.090Z,0.88
2022-08-10T15:29:23.083Z,0.70
2022-08-10T15:34:03.202Z,0.57
2022-08-10T15:38:09.162Z,0.60
2022-08-10T15:42:19.889Z,0.60
2022-08-10T15:46:33.701Z,0.85
2022-08-10T15:50:40.965Z,0.70
2022-08-10T15:54:54.562Z,0.55
2022-08-10T15:59:08.275Z,0.80
2022-08-10T16:03:18.094Z,0.73
2022-08-10T16:11:55.081Z,0.73
2022-08-10T16:16:01.757Z,0.68
2022-08-10T16:20:09.449Z,0.60
2022-08-10T16:24:16.316Z,0.70
2022-08-10T16:28:23.899Z,0.95
2022-08-10T16:32:28.259Z,0.65
2022-08-10T16:36:39.049Z,1.10
2022-08-10T16:40:44.378Z,0.70
2022-08-10T16:44:53.691Z,0.85
2022-08-10T16:48:59.987Z,1.00
2022-08-10T16:53:07.453Z,1.25
2022-08-10T16:57:12.054Z,1.02
2022-08-10T17:01:19.477Z,0.82
2022-08-10T17:06:01.813Z,1.20
2022-08-10T17:09:51.990Z,0.73
2022-08-10T17:13:56.948Z,1.20
2022-08-10T17:18:01.788Z,1.00
2022-08-10T17:22:11.629Z,0.85
2022-08-10T17:30:34.016Z,1.23
2022-08-10T17:34:40.938Z,1.50
2022-08-10T17:38:49.699Z,1.40
2022-08-10T17:42:55.715Z,1.48
2022-08-10T17:47:00.878Z,1.80
2022-08-10T17:51:16.831Z,1.00
2022-08-10T17:55:21.089Z,0.85
2022-08-10T17:59:31.878Z,1.10
2022-08-10T18:03:36.866Z,1.00
2022-08-10T18:07:45.460Z,1.50
2022-08-10T18:11:51.138Z,1.27
2022-08-10T18:15:57.187Z,0.85
2022-08-10T18:20:02.879Z,1.33
2022-08-10T18:24:15.665Z,1.23
2022-08-10T18:28:20.978Z,1.20
2022-08-10T18:32:26.981Z,1.63
2022-08-10T18:36:31.422Z,1.25
2022-08-10T18:40:36.309Z,1.67
2022-08-10T18:44:44.352Z,1.60
2022-08-10T18:48:54.115Z,1.63
2022-08-10T18:53:01.315Z,1.50
2022-08-10T18:57:13.976Z,1.40
2022-08-10T19:01:34.994Z,1.77
2022-08-10T19:05:57.868Z,1.38
2022-08-10T19:10:10.601Z,1.25
2022-08-10T19:14:17.357Z,2.10
2022-08-10T19:18:32.819Z,1.42
2022-08-10T19:22:48.170Z,2.00
2022-08-10T19:26:58.182Z,1.27
2022-08-10T19:31:08.278Z,1.63
2022-08-10T19:39:29.874Z,1.85
2022-08-10T19:44:00.424Z,2.28
2022-08-10T19:48:19.770Z,1.67
2022-08-10T19:52:31.530Z,1.88
2022-08-10T19:56:47.669Z,1.75
2022-08-10T20:00:57.396Z,1.88
2022-08-10T20:05:07.062Z,1.52
2022-08-10T20:09:20.719Z,2.05
2022-08-10T20:13:34.806Z,1.70
2022-08-10T20:17:51.011Z,2.05
2022-08-10T20:22:01.225Z,1.65
2022-08-10T20:26:11.825Z,1.65
2022-08-10T20:30:16.830Z,1.55
2022-08-10T20:34:23.194Z,1.70
2022-08-10T20:38:33.447Z,1.67
2022-08-10T20:42:41.342Z,1.80
2022-08-10T20:47:00.316Z,1.67
2022-08-10T20:51:07.766Z,1.77
2022-08-10T20:55:12.563Z,1.80
2022-08-10T20:59:37.834Z,2.30
2022-08-10T21:04:29.787Z,1.60
2022-08-10T21:08:47.603Z,2.05
2022-08-10T21:13:14.058Z,1.90
2022-08-10T21:17:37.408Z,2.40
2022-08-10T21:21:59.395Z,2.00
2022-08-10T21:26:08.111Z,2.17
2022-08-10T21:30:13.725Z,1.88
2022-08-10T21:34:35.121Z,1.85
2022-08-10T21:38:52.103Z,1.90
2022-08-10T21:43:44.658Z,1.63
2022-08-10T21:48:29.906Z,2.22
2022-08-10T21:53:03.863Z,2.10
2022-08-10T22:02:17.607Z,2.33
2022-08-10T22:06:52.643Z,2.13
2022-08-10T22:11:16.406Z,1.95
2022-08-10T22:16:03.286Z,2.17
2022-08-10T22:20:27.139Z,2.25
2022-08-10T22:25:02.780Z,2.67
2022-08-10T22:29:42.704Z,2.25
2022-08-10T22:31:25.594Z,2.00
2022-08-10T22:34:15.807Z,2.13
2022-08-10T22:38:45.267Z,2.22
2022-08-10T22:43:12.225Z,1.47
2022-08-10T22:47:38.418Z,1.83
2022-08-10T22:51:52.556Z,3.03
2022-08-10T22:56:15.207Z,2.40
2022-08-10T23:00:20.049Z,1.80
2022-08-10T23:04:45.033Z,2.17
2022-08-10T23:08:52.511Z,2.20
2022-08-10T23:12:59.236Z,2.13
2022-08-10T23:17:21.502Z,2.20
2022-08-10T23:22:02.797Z,2.05
2022-08-10T23:25:58.327Z,2.38
2022-08-10T23:30:10.151Z,2.13
2022-08-10T23:34:15.351Z,2.38
2022-08-10T23:38:22.738Z,2.50
2022-08-10T23:42:37.334Z,2.20
2022-08-10T23:46:42.945Z,1.92
2022-08-10T23:50:52.312Z,2.38
2022-08-10T23:55:05.975Z,2.60
2022-08-10T23:59:16.415Z,2.50
